createdAt,value
2022-09-25T00:02:24.691Z,80.52
2022-09-25T00:05:11.048Z,78.59
2022-09-25T00:07:56.919Z,77.65
2022-09-25T00:10:43.523Z,79.03
2022-09-25T00:13:29.681Z,78.34
2022-09-25T00:16:17.667Z,78.16
2022-09-25T00:19:22.407Z,80.83
2022-09-25T00:22:08.697Z,87.33
2022-09-25T00:24:54.679Z,83.55
2022-09-25T00:27:44.325Z,83.08
2022-09-25T00:30:30.343Z,82.52
2022-09-25T00:33:16.663Z,83.00
2022-09-25T00:36:04.469Z,88.99
2022-09-25T00:38:50.768Z,86.06
2022-09-25T00:41:36.902Z,85.39
2022-09-25T00:44:41.616Z,83.81
2022-09-25T00:47:50.904Z,87.36
2022-09-25T00:50:50.015Z,82.44
2022-09-25T00:53:37.287Z,84.16
2022-09-25T00:56:24.164Z,82.15
2022-09-25T00:59:11.100Z,84.39
2022-09-25T01:01:57.285Z,83.86
2022-09-25T01:04:42.792Z,85.27
2022-09-25T01:07:29.613Z,84.65
2022-09-25T01:10:15.779Z,88.52
2022-09-25T01:13:01.849Z,89.43
2022-09-25T01:15:47.793Z,89.88
2022-09-25T01:18:42.042Z,87.09
2022-09-25T01:21:31.009Z,86.57
2022-09-25T01:24:17.337Z,89.60
2022-09-25T01:27:11.739Z,92.42
2022-09-25T01:30:18.722Z,88.58
2022-09-25T01:33:13.664Z,85.67
2022-09-25T01:36:01.341Z,86.76
2022-09-25T01:38:47.799Z,84.40
2022-09-25T01:41:40.579Z,83.87
2022-09-25T01:44:28.825Z,86.02
2022-09-25T01:47:18.586Z,85.70
2022-09-25T01:50:08.472Z,88.60
2022-09-25T01:52:55.714Z,85.82
2022-09-25T01:55:52.557Z,86.77
2022-09-25T01:58:42.296Z,88.27
2022-09-25T02:01:29.335Z,85.23
2022-09-25T02:04:16.888Z,86.58
2022-09-25T02:07:03.715Z,87.36
2022-09-25T02:09:53.396Z,84.93
2022-09-25T02:12:40.914Z,85.59
2022-09-25T02:15:31.334Z,86.09
2022-09-25T02:18:35.635Z,85.35
2022-09-25T02:21:25.168Z,87.48
2022-09-25T02:24:14.815Z,88.09
2022-09-25T02:27:00.850Z,87.30
2022-09-25T02:29:47.153Z,88.36
2022-09-25T02:32:33.216Z,91.11
2022-09-25T02:35:19.413Z,91.09
2022-09-25T02:38:05.839Z,90.18
2022-09-25T02:40:53.215Z,92.40
2022-09-25T02:44:08.779Z,92.20
2022-09-25T02:46:59.805Z,88.34
2022-09-25T02:50:01.044Z,90.90
2022-09-25T02:52:47.004Z,88.15
2022-09-25T02:55:36.007Z,86.97
2022-09-25T02:58:29.403Z,90.10
2022-09-25T03:01:16.510Z,92.04
2022-09-25T03:04:03.451Z,94.32
2022-09-25T03:06:49.596Z,90.03
2022-09-25T03:09:35.860Z,89.64
2022-09-25T03:12:22.105Z,90.10
2022-09-25T03:15:07.934Z,91.31
2022-09-25T03:17:54.088Z,92.28
2022-09-25T03:20:40.462Z,89.68
2022-09-25T03:23:26.851Z,89.61
2022-09-25T03:26:13.084Z,92.07
2022-09-25T03:29:02.668Z,90.73
2022-09-25T03:31:48.878Z,91.28
2022-09-25T03:34:34.874Z,92.76
2022-09-25T03:37:20.646Z,92.60
2022-09-25T03:40:07.104Z,92.32
2022-09-25T03:42:52.827Z,89.99
2022-09-25T03:45:39.070Z,88.77
2022-09-25T03:48:25.009Z,88.75
2022-09-25T03:51:11.529Z,88.37
2022-09-25T03:53:57.363Z,92.05
2022-09-25T03:56:43.987Z,93.90
2022-09-25T03:59:29.857Z,92.84
2022-09-25T04:02:16.297Z,94.71
2022-09-25T04:05:04.212Z,93.25
2022-09-25T04:07:50.465Z,94.26
2022-09-25T04:10:38.961Z,93.73
2022-09-25T04:13:25.624Z,93.88
2022-09-25T04:16:12.194Z,93.32
2022-09-25T04:18:57.914Z,93.66
2022-09-25T04:21:43.923Z,95.90
2022-09-25T04:24:48.319Z,93.96
2022-09-25T04:27:34.670Z,94.42
2022-09-25T04:30:20.578Z,92.13
2022-09-25T04:33:25.600Z,90.44
2022-09-25T04:36:11.438Z,95.02
2022-09-25T04:38:57.527Z,97.33
2022-09-25T04:41:43.476Z,98.09
2022-09-25T04:44:31.031Z,97.25
2022-09-25T04:47:16.568Z,93.61
2022-09-25T04:50:02.442Z,90.34
2022-09-25T04:52:49.897Z,94.19
2022-09-25T04:55:35.950Z,91.84
2022-09-25T04:58:22.075Z,95.00
2022-09-25T05:01:09.054Z,93.13
2022-09-25T05:03:55.306Z,95.58
2022-09-25T05:06:41.850Z,96.32
2022-09-25T05:09:27.363Z,95.57
2022-09-25T05:12:13.753Z,94.45
2022-09-25T05:14:59.551Z,94.23
2022-09-25T05:17:45.834Z,95.38
2022-09-25T05:20:31.919Z,93.18
2022-09-25T05:23:18.367Z,90.35
2022-09-25T05:26:04.511Z,94.55
2022-09-25T05:28:50.572Z,99.07
2022-09-25T05:31:36.621Z,98.48
2022-09-25T05:34:23.040Z,100.00
2022-09-25T05:37:08.828Z,100.00
2022-09-25T05:39:55.194Z,100.00
2022-09-25T05:42:43.421Z,100.00
2022-09-25T05:45:29.543Z,100.00
2022-09-25T05:48:16.254Z,100.00
2022-09-25T05:51:02.644Z,100.00
2022-09-25T05:53:49.067Z,100.00
2022-09-25T05:56:35.516Z,100.00
2022-09-25T05:59:21.260Z,96.18
2022-09-25T06:02:09.458Z,96.20
2022-09-25T06:04:55.380Z,97.34
2022-09-25T06:07:41.200Z,98.58
2022-09-25T06:10:27.525Z,100.00
2022-09-25T06:13:13.346Z,100.00
2022-09-25T06:15:59.401Z,100.00
2022-09-25T06:18:46.280Z,98.35
2022-09-25T06:21:32.382Z,97.61
2022-09-25T06:24:18.398Z,96.54
2022-09-25T06:27:06.157Z,97.94
2022-09-25T06:29:51.923Z,98.16
2022-09-25T06:32:38.333Z,99.22
2022-09-25T06:35:24.025Z,95.77
2022-09-25T06:38:10.596Z,91.98
2022-09-25T06:41:00.158Z,92.71
2022-09-25T06:43:48.735Z,93.90
2022-09-25T06:46:35.055Z,90.85
2022-09-25T06:49:21.987Z,89.51
2022-09-25T06:52:07.991Z,91.87
2022-09-25T06:54:54.190Z,91.09
2022-09-25T06:57:40.078Z,89.65
2022-09-25T07:00:26.555Z,93.78
2022-09-25T07:03:30.820Z,94.40
2022-09-25T07:06:18.383Z,92.24
2022-09-25T07:09:04.461Z,90.68
2022-09-25T07:11:51.753Z,89.96
2022-09-25T07:14:38.620Z,88.09
2022-09-25T07:17:24.597Z,85.75
2022-09-25T07:20:12.662Z,86.08
2022-09-25T07:22:59.668Z,83.71
2022-09-25T07:25:46.166Z,83.73
2022-09-25T07:28:32.531Z,85.89
2022-09-25T07:31:19.595Z,87.65
2022-09-25T07:34:09.448Z,87.57
2022-09-25T07:36:55.899Z,86.48
2022-09-25T07:39:42.141Z,84.88
2022-09-25T07:42:27.943Z,87.21
2022-09-25T07:45:14.426Z,85.50
2022-09-25T07:48:00.933Z,86.77
2022-09-25T07:50:49.447Z,84.94
2022-09-25T07:53:35.539Z,84.84
2022-09-25T07:56:21.793Z,83.18
2022-09-25T07:59:07.697Z,81.37
2022-09-25T08:01:54.491Z,85.61
2022-09-25T08:04:40.875Z,84.80
2022-09-25T08:07:30.091Z,84.63
2022-09-25T08:10:16.436Z,84.23
2022-09-25T08:13:02.104Z,83.59
2022-09-25T08:15:48.924Z,83.26
2022-09-25T08:18:35.247Z,83.65
2022-09-25T08:21:21.350Z,87.95
2022-09-25T08:24:07.319Z,84.14
2022-09-25T08:26:53.619Z,86.24
2022-09-25T08:29:39.576Z,87.74
2022-09-25T08:32:25.586Z,84.29
2022-09-25T08:35:11.358Z,81.02
2022-09-25T08:37:57.632Z,85.06
2022-09-25T08:40:47.046Z,84.28
2022-09-25T08:43:34.472Z,82.64
2022-09-25T08:46:43.835Z,80.78
2022-09-25T08:49:31.666Z,83.67
2022-09-25T08:52:18.472Z,83.81
2022-09-25T08:55:08.543Z,84.14
2022-09-25T08:57:55.596Z,83.32
2022-09-25T09:00:41.567Z,86.04
2022-09-25T09:03:30.499Z,85.87
2022-09-25T09:06:17.298Z,84.94
2022-09-25T09:09:07.199Z,82.78
2022-09-25T09:11:57.196Z,81.55
2022-09-25T09:14:47.480Z,81.80
2022-09-25T09:17:40.517Z,79.71
2022-09-25T09:20:30.751Z,81.73
2022-09-25T09:23:18.928Z,78.96
2022-09-25T09:26:43.585Z,78.30
2022-09-25T09:29:48.624Z,78.55
2022-09-25T09:32:37.919Z,76.96
2022-09-25T09:36:05.250Z,78.76
2022-09-25T09:39:09.815Z,78.88
2022-09-25T09:42:01.993Z,78.50
2022-09-25T09:44:54.399Z,78.75
2022-09-25T09:47:50.365Z,78.52
2022-09-25T09:50:53.320Z,79.78
2022-09-25T09:53:42.196Z,81.71
2022-09-25T09:56:31.799Z,84.72
2022-09-25T09:59:19.437Z,87.95
2022-09-25T10:02:11.821Z,86.37
2022-09-25T10:04:58.516Z,88.77
2022-09-25T10:07:44.409Z,89.52
2022-09-25T10:10:40.988Z,91.47
2022-09-25T10:13:30.242Z,90.20
2022-09-25T10:16:17.410Z,90.44
2022-09-25T10:19:07.597Z,86.19
2022-09-25T10:22:15.809Z,84.27
2022-09-25T10:25:02.684Z,90.91
2022-09-25T10:27:49.749Z,87.32
2022-09-25T10:30:35.508Z,92.13
2022-09-25T10:33:22.351Z,94.32
2022-09-25T10:36:08.501Z,88.87
2022-09-25T10:39:08.317Z,93.46
2022-09-25T10:42:01.188Z,92.03
2022-09-25T10:44:47.733Z,89.45
2022-09-25T10:47:52.613Z,92.25
2022-09-25T10:50:38.725Z,99.33
2022-09-25T10:53:30.042Z,98.17
2022-09-25T10:56:35.641Z,96.07
2022-09-25T10:59:23.472Z,99.49
2022-09-25T11:02:22.258Z,98.58
2022-09-25T11:05:16.514Z,99.25
2022-09-25T11:08:06.143Z,97.14
2022-09-25T11:10:57.129Z,96.34
2022-09-25T11:13:46.644Z,93.20
2022-09-25T11:16:51.016Z,94.17
2022-09-25T11:19:38.875Z,95.80
2022-09-25T11:22:36.203Z,97.96
2022-09-25T11:25:53.050Z,96.27
2022-09-25T11:28:54.453Z,99.07
2022-09-25T11:31:56.331Z,100.00
2022-09-25T11:34:48.430Z,97.80
2022-09-25T11:37:40.246Z,97.13
2022-09-25T11:40:53.386Z,95.44
2022-09-25T11:44:06.211Z,97.80
2022-09-25T11:47:01.482Z,100.00
2022-09-25T11:49:51.477Z,100.00
2022-09-25T11:52:41.745Z,100.00
2022-09-25T11:55:53.086Z,100.00
2022-09-25T11:58:55.237Z,100.00
2022-09-25T12:02:23.057Z,100.00
2022-09-25T12:05:37.973Z,100.00
2022-09-25T12:08:47.621Z,99.80
2022-09-25T12:11:57.007Z,97.56
2022-09-25T12:14:52.185Z,99.17
2022-09-25T12:18:14.218Z,99.52
2022-09-25T12:21:06.032Z,97.98
2022-09-25T12:24:15.160Z,99.04
2022-09-25T12:27:50.663Z,100.00
2022-09-25T12:30:50.861Z,97.02
2022-09-25T12:33:58.384Z,98.20
2022-09-25T12:36:49.179Z,100.00
2022-09-25T12:39:41.306Z,99.38
2022-09-25T12:42:43.463Z,98.73
2022-09-25T12:45:38.378Z,100.00
2022-09-25T12:48:29.139Z,100.00
2022-09-25T12:51:35.000Z,100.00
2022-09-25T12:54:35.293Z,98.81
2022-09-25T12:57:37.201Z,100.00
2022-09-25T13:00:25.726Z,100.00
2022-09-25T13:03:17.831Z,100.00
2022-09-25T13:06:28.974Z,100.00
2022-09-25T13:09:41.389Z,100.00
2022-09-25T13:12:32.609Z,100.00
2022-09-25T13:15:25.383Z,100.00
2022-09-25T13:18:18.126Z,100.00
2022-09-25T13:21:24.102Z,100.00
2022-09-25T13:24:14.444Z,100.00
2022-09-25T13:27:04.755Z,99.91
2022-09-25T13:29:54.818Z,99.79
2022-09-25T13:32:48.321Z,100.00
2022-09-25T13:35:36.267Z,100.00
2022-09-25T13:38:41.222Z,100.00
2022-09-25T13:41:30.015Z,100.00
2022-09-25T13:44:41.243Z,100.00
2022-09-25T13:47:27.736Z,100.00
2022-09-25T13:50:26.616Z,100.00
2022-09-25T13:53:22.131Z,100.00
2022-09-25T13:56:14.211Z,100.00
2022-09-25T13:59:00.440Z,100.00
2022-09-25T14:01:59.099Z,100.00
2022-09-25T14:04:48.278Z,100.00
2022-09-25T14:07:34.917Z,100.00
2022-09-25T14:10:22.205Z,100.00
2022-09-25T14:13:13.081Z,100.00
2022-09-25T14:16:02.855Z,100.00
2022-09-25T14:18:54.240Z,100.00
2022-09-25T14:21:43.908Z,100.00
2022-09-25T14:24:30.812Z,100.00
2022-09-25T14:27:22.960Z,100.00
2022-09-25T14:30:13.986Z,100.00
2022-09-25T14:33:10.391Z,100.00
2022-09-25T14:36:35.220Z,100.00
2022-09-25T14:39:28.930Z,100.00
2022-09-25T14:42:24.198Z,100.00
2022-09-25T14:45:35.357Z,100.00
2022-09-25T14:48:26.287Z,100.00
2022-09-25T14:51:35.393Z,100.00
2022-09-25T14:54:24.279Z,100.00
2022-09-25T14:57:12.010Z,100.00
2022-09-25T15:00:02.030Z,100.00
2022-09-25T15:02:49.676Z,100.00
2022-09-25T15:05:37.650Z,100.00
2022-09-25T15:08:34.940Z,100.00
2022-09-25T15:11:22.002Z,100.00
2022-09-25T15:14:16.575Z,100.00
2022-09-25T15:17:22.110Z,100.00
2022-09-25T15:20:11.989Z,100.00
2022-09-25T15:23:13.473Z,100.00
2022-09-25T15:25:59.620Z,100.00
2022-09-25T15:28:46.254Z,100.00
2022-09-25T15:31:37.582Z,100.00
2022-09-25T15:34:27.552Z,100.00
2022-09-25T15:37:18.847Z,100.00
2022-09-25T15:40:17.183Z,100.00
2022-09-25T15:43:03.814Z,100.00
2022-09-25T15:46:07.581Z,100.00
2022-09-25T15:48:57.566Z,100.00
2022-09-25T15:52:04.635Z,100.00
2022-09-25T15:54:51.257Z,100.00
2022-09-25T15:57:37.220Z,100.00
2022-09-25T16:00:44.316Z,100.00
2022-09-25T16:03:49.781Z,100.00
2022-09-25T16:06:39.393Z,100.00
2022-09-25T16:09:34.995Z,100.00
2022-09-25T16:12:22.709Z,100.00
2022-09-25T16:15:32.376Z,100.00
2022-09-25T16:18:21.693Z,100.00
2022-09-25T16:21:17.281Z,100.00
2022-09-25T16:24:05.859Z,100.00
2022-09-25T16:26:53.176Z,100.00
2022-09-25T16:29:39.269Z,100.00
2022-09-25T16:32:25.903Z,100.00
2022-09-25T16:35:25.260Z,100.00
2022-09-25T16:38:26.171Z,100.00
2022-09-25T16:41:12.080Z,100.00
2022-09-25T16:44:14.164Z,100.00
2022-09-25T16:47:00.006Z,100.00
2022-09-25T16:49:47.746Z,100.00
2022-09-25T16:52:34.550Z,100.00
2022-09-25T16:55:25.511Z,100.00
2022-09-25T16:58:11.385Z,100.00
2022-09-25T17:00:58.884Z,100.00
2022-09-25T17:03:50.949Z,100.00
2022-09-25T17:06:40.812Z,100.00
2022-09-25T17:09:28.427Z,100.00
2022-09-25T17:12:17.877Z,100.00
2022-09-25T17:15:03.711Z,100.00
2022-09-25T17:17:55.117Z,100.00
2022-09-25T17:20:40.567Z,100.00
2022-09-25T17:23:27.064Z,100.00
2022-09-25T17:26:17.118Z,100.00
2022-09-25T17:29:03.508Z,100.00
2022-09-25T17:31:49.309Z,100.00
2022-09-25T17:34:35.904Z,100.00
2022-09-25T17:37:22.285Z,100.00
2022-09-25T17:40:08.838Z,100.00
2022-09-25T17:42:54.959Z,100.00
2022-09-25T17:45:46.071Z,100.00
2022-09-25T17:48:34.550Z,100.00
2022-09-25T17:51:21.391Z,100.00
2022-09-25T17:54:07.019Z,100.00
2022-09-25T17:56:53.377Z,100.00
2022-09-25T17:59:39.261Z,100.00
2022-09-25T18:02:28.999Z,100.00
2022-09-25T18:05:16.442Z,100.00
2022-09-25T18:08:02.570Z,100.00
2022-09-25T18:10:49.179Z,100.00
2022-09-25T18:13:39.285Z,100.00
2022-09-25T18:16:29.290Z,100.00
2022-09-25T18:19:37.606Z,100.00
2022-09-25T18:22:25.695Z,100.00
2022-09-25T18:25:11.511Z,100.00
2022-09-25T18:27:58.490Z,100.00
2022-09-25T18:30:44.272Z,100.00
2022-09-25T18:33:31.158Z,100.00
2022-09-25T18:36:17.109Z,100.00
2022-09-25T18:39:04.727Z,100.00
2022-09-25T18:41:51.388Z,100.00
2022-09-25T18:44:42.730Z,100.00
2022-09-25T18:47:29.487Z,100.00
2022-09-25T18:50:20.590Z,100.00
2022-09-25T18:53:06.823Z,100.00
2022-09-25T18:55:57.773Z,100.00
2022-09-25T18:58:43.520Z,100.00
2022-09-25T19:01:30.569Z,100.00
2022-09-25T19:04:16.981Z,100.00
2022-09-25T19:07:03.230Z,100.00
2022-09-25T19:09:48.923Z,100.00
2022-09-25T19:12:34.990Z,100.00
2022-09-25T19:15:27.882Z,100.00
2022-09-25T19:18:14.187Z,100.00
2022-09-25T19:21:00.237Z,100.00
2022-09-25T19:23:47.788Z,100.00
2022-09-25T19:26:33.885Z,100.00
2022-09-25T19:29:20.081Z,100.00
2022-09-25T19:32:06.643Z,100.00
2022-09-25T19:34:54.294Z,100.00
2022-09-25T19:37:41.955Z,100.00
2022-09-25T19:40:37.685Z,100.00
2022-09-25T19:43:23.487Z,100.00
2022-09-25T19:46:10.578Z,100.00
2022-09-25T19:48:56.275Z,100.00
2022-09-25T19:51:42.868Z,100.00
2022-09-25T19:54:29.559Z,100.00
2022-09-25T19:57:15.760Z,100.00
2022-09-25T20:00:01.664Z,100.00
2022-09-25T20:02:54.569Z,100.00
2022-09-25T20:05:44.731Z,100.00
2022-09-25T20:08:30.555Z,100.00
2022-09-25T20:11:18.683Z,100.00
2022-09-25T20:14:05.250Z,100.00
2022-09-25T20:16:52.500Z,100.00
2022-09-25T20:19:38.558Z,100.00
2022-09-25T20:22:24.858Z,100.00
2022-09-25T20:25:11.146Z,100.00
2022-09-25T20:27:57.648Z,100.00
2022-09-25T20:30:43.638Z,100.00
2022-09-25T20:33:34.574Z,100.00
2022-09-25T20:36:20.955Z,100.00
2022-09-25T20:39:07.326Z,100.00
2022-09-25T20:41:52.951Z,100.00
2022-09-25T20:44:39.359Z,100.00
2022-09-25T20:47:25.031Z,100.00
2022-09-25T20:50:11.598Z,100.00
2022-09-25T20:52:57.911Z,100.00
2022-09-25T20:55:44.184Z,100.00
2022-09-25T20:58:30.164Z,100.00
2022-09-25T21:01:17.546Z,100.00
2022-09-25T21:04:04.306Z,100.00
2022-09-25T21:06:50.296Z,100.00
2022-09-25T21:09:36.068Z,100.00
2022-09-25T21:12:22.287Z,100.00
2022-09-25T21:15:08.267Z,100.00
2022-09-25T21:17:54.373Z,100.00
2022-09-25T21:20:40.676Z,100.00
2022-09-25T21:23:27.383Z,100.00
2022-09-25T21:26:13.960Z,100.00
2022-09-25T21:29:03.131Z,100.00
2022-09-25T21:31:50.894Z,100.00
2022-09-25T21:34:37.242Z,100.00
2022-09-25T21:37:22.987Z,100.00
2022-09-25T21:40:08.886Z,100.00
2022-09-25T21:42:54.742Z,100.00
2022-09-25T21:45:40.871Z,100.00
2022-09-25T21:48:26.682Z,100.00
2022-09-25T21:51:12.827Z,100.00
2022-09-25T21:53:58.811Z,100.00
2022-09-25T21:56:44.962Z,100.00
2022-09-25T21:59:31.107Z,100.00
2022-09-25T22:02:18.282Z,100.00
2022-09-25T22:05:04.380Z,100.00
2022-09-25T22:07:49.890Z,100.00
2022-09-25T22:10:35.893Z,100.00
2022-09-25T22:13:21.687Z,100.00
2022-09-25T22:16:08.747Z,100.00
2022-09-25T22:18:56.734Z,100.00
2022-09-25T22:21:43.202Z,100.00
2022-09-25T22:24:29.242Z,100.00
2022-09-25T22:27:15.357Z,100.00
2022-09-25T22:30:01.089Z,100.00
2022-09-25T22:32:47.472Z,100.00
2022-09-25T22:35:33.278Z,100.00
2022-09-25T22:38:19.512Z,100.00
2022-09-25T22:41:06.277Z,100.00
2022-09-25T22:43:53.063Z,100.00
2022-09-25T22:46:38.596Z,100.00
2022-09-25T22:49:24.470Z,100.00
2022-09-25T22:52:10.590Z,100.00
2022-09-25T22:54:56.766Z,100.00
2022-09-25T22:57:42.692Z,100.00
2022-09-25T23:00:28.899Z,100.00
2022-09-25T23:03:14.797Z,100.00
2022-09-25T23:06:01.400Z,100.00
2022-09-25T23:08:51.258Z,100.00
2022-09-25T23:11:37.671Z,100.00
2022-09-25T23:14:24.787Z,100.00
2022-09-25T23:17:11.126Z,100.00
2022-09-25T23:19:57.087Z,100.00
2022-09-25T23:22:43.083Z,100.00
2022-09-25T23:25:29.182Z,100.00
2022-09-25T23:28:15.086Z,100.00
2022-09-25T23:31:07.484Z,100.00
2022-09-25T23:33:54.173Z,100.00
2022-09-25T23:36:40.305Z,100.00
2022-09-25T23:39:26.563Z,100.00
2022-09-25T23:42:12.604Z,100.00
2022-09-25T23:44:58.858Z,100.00
2022-09-25T23:47:44.458Z,100.00
2022-09-25T23:50:31.131Z,100.00
2022-09-25T23:53:16.985Z,100.00
2022-09-25T23:56:10.060Z,100.00
2022-09-25T23:58:56.101Z,100.00
